sensor_id;sensor_type;location;lat;lon;timestamp;temperature;humidity
25108;DHT22;13090;53.422;7.670;2023-06-22T00:00:22;20.80;69.10
25108;DHT22;13090;53.422;7.670;2023-06-22T00:05:45;20.80;69.40
25108;DHT22;13090;53.422;7.670;2023-06-22T00:11:06;20.70;69.70
25108;DHT22;13090;53.422;7.670;2023-06-22T00:16:27;20.60;69.80
25108;DHT22;13090;53.422;7.670;2023-06-22T00:21:49;20.40;70.00
25108;DHT22;13090;53.422;7.670;2023-06-22T00:27:10;20.30;70.90
25108;DHT22;13090;53.422;7.670;2023-06-22T00:32:30;20.20;71.00
25108;DHT22;13090;53.422;7.670;2023-06-22T00:37:53;20.10;71.30
25108;DHT22;13090;53.422;7.670;2023-06-22T00:43:14;20.10;71.70
25108;DHT22;13090;53.422;7.670;2023-06-22T00:48:35;20.10;71.50
25108;DHT22;13090;53.422;7.670;2023-06-22T00:53:57;20.10;71.50
25108;DHT22;13090;53.422;7.670;2023-06-22T00:59:18;20.10;71.70
25108;DHT22;13090;53.422;7.670;2023-06-22T01:04:40;20.10;71.40
25108;DHT22;13090;53.422;7.670;2023-06-22T01:10:07;20.10;71.40
25108;DHT22;13090;53.422;7.670;2023-06-22T01:15:31;20.10;72.00
25108;DHT22;13090;53.422;7.670;2023-06-22T01:20:54;20.00;71.60
25108;DHT22;13090;53.422;7.670;2023-06-22T01:26:18;19.90;71.40
25108;DHT22;13090;53.422;7.670;2023-06-22T01:31:45;19.90;71.70
25108;DHT22;13090;53.422;7.670;2023-06-22T01:37:07;19.80;71.70
25108;DHT22;13090;53.422;7.670;2023-06-22T01:42:29;19.80;71.60
25108;DHT22;13090;53.422;7.670;2023-06-22T01:47:52;19.70;71.70
25108;DHT22;13090;53.422;7.670;2023-06-22T01:53:13;19.60;71.60
25108;DHT22;13090;53.422;7.670;2023-06-22T01:58:38;19.60;71.60
25108;DHT22;13090;53.422;7.670;2023-06-22T02:04:07;19.50;72.00
25108;DHT22;13090;53.422;7.670;2023-06-22T02:09:32;19.40;72.10
25108;DHT22;13090;53.422;7.670;2023-06-22T02:14:54;19.30;71.80
25108;DHT22;13090;53.422;7.670;2023-06-22T02:20:17;19.20;71.90
25108;DHT22;13090;53.422;7.670;2023-06-22T02:25:38;19.20;72.40
25108;DHT22;13090;53.422;7.670;2023-06-22T02:30:59;19.10;72.30
25108;DHT22;13090;53.422;7.670;2023-06-22T02:36:22;19.10;72.30
25108;DHT22;13090;53.422;7.670;2023-06-22T02:41:43;19.00;72.40
25108;DHT22;13090;53.422;7.670;2023-06-22T02:47:04;18.90;72.50
25108;DHT22;13090;53.422;7.670;2023-06-22T02:52:27;18.90;72.80
25108;DHT22;13090;53.422;7.670;2023-06-22T02:57:48;18.80;73.20
25108;DHT22;13090;53.422;7.670;2023-06-22T03:03:09;18.80;73.30
25108;DHT22;13090;53.422;7.670;2023-06-22T03:08:31;18.80;73.30
25108;DHT22;13090;53.422;7.670;2023-06-22T03:13:52;18.70;73.60
25108;DHT22;13090;53.422;7.670;2023-06-22T03:19:13;18.80;73.50
25108;DHT22;13090;53.422;7.670;2023-06-22T03:24:35;18.70;73.50
25108;DHT22;13090;53.422;7.670;2023-06-22T03:29:57;18.70;73.90
25108;DHT22;13090;53.422;7.670;2023-06-22T03:35:17;18.70;74.20
25108;DHT22;13090;53.422;7.670;2023-06-22T03:40:40;18.60;74.10
25108;DHT22;13090;53.422;7.670;2023-06-22T03:46:01;18.70;74.10
25108;DHT22;13090;53.422;7.670;2023-06-22T03:51:22;18.70;74.00
25108;DHT22;13090;53.422;7.670;2023-06-22T03:56:44;18.70;74.30
25108;DHT22;13090;53.422;7.670;2023-06-22T04:02:05;18.70;74.70
25108;DHT22;13090;53.422;7.670;2023-06-22T04:07:26;18.80;74.70
25108;DHT22;13090;53.422;7.670;2023-06-22T04:12:48;18.90;74.90
25108;DHT22;13090;53.422;7.670;2023-06-22T04:18:09;19.00;75.10
25108;DHT22;13090;53.422;7.670;2023-06-22T04:23:30;19.10;74.90
25108;DHT22;13090;53.422;7.670;2023-06-22T04:28:52;19.20;74.90
25108;DHT22;13090;53.422;7.670;2023-06-22T04:34:13;19.40;75.20
25108;DHT22;13090;53.422;7.670;2023-06-22T04:39:34;19.50;75.10
25108;DHT22;13090;53.422;7.670;2023-06-22T04:44:56;19.60;75.20
25108;DHT22;13090;53.422;7.670;2023-06-22T04:50:20;19.70;75.50
25108;DHT22;13090;53.422;7.670;2023-06-22T04:55:41;19.80;75.60
25108;DHT22;13090;53.422;7.670;2023-06-22T05:01:03;19.90;76.00
25108;DHT22;13090;53.422;7.670;2023-06-22T05:06:24;20.00;76.60
25108;DHT22;13090;53.422;7.670;2023-06-22T05:11:45;20.20;76.80
25108;DHT22;13090;53.422;7.670;2023-06-22T05:17:08;20.60;76.90
25108;DHT22;13090;53.422;7.670;2023-06-22T05:22:29;21.00;77.30
25108;DHT22;13090;53.422;7.670;2023-06-22T05:27:50;21.50;77.30
25108;DHT22;13090;53.422;7.670;2023-06-22T05:33:12;22.00;77.30
25108;DHT22;13090;53.422;7.670;2023-06-22T05:38:33;22.60;76.60
25108;DHT22;13090;53.422;7.670;2023-06-22T05:43:54;23.10;76.00
25108;DHT22;13090;53.422;7.670;2023-06-22T05:49:17;23.70;75.80
25108;DHT22;13090;53.422;7.670;2023-06-22T05:54:38;24.30;74.10
25108;DHT22;13090;53.422;7.670;2023-06-22T05:59:58;24.80;73.70
25108;DHT22;13090;53.422;7.670;2023-06-22T06:05:21;25.30;72.60
25108;DHT22;13090;53.422;7.670;2023-06-22T06:10:42;25.80;72.20
25108;DHT22;13090;53.422;7.670;2023-06-22T06:16:03;26.50;71.50
25108;DHT22;13090;53.422;7.670;2023-06-22T06:21:25;27.00;66.90
25108;DHT22;13090;53.422;7.670;2023-06-22T06:26:50;26.90;65.50
25108;DHT22;13090;53.422;7.670;2023-06-22T06:32:11;26.70;66.10
25108;DHT22;13090;53.422;7.670;2023-06-22T06:37:36;26.80;68.10
25108;DHT22;13090;53.422;7.670;2023-06-22T06:42:58;27.40;66.40
25108;DHT22;13090;53.422;7.670;2023-06-22T06:48:19;27.80;66.70
25108;DHT22;13090;53.422;7.670;2023-06-22T06:53:41;28.40;65.10
25108;DHT22;13090;53.422;7.670;2023-06-22T06:59:02;28.70;62.20
25108;DHT22;13090;53.422;7.670;2023-06-22T07:04:23;28.60;61.10
25108;DHT22;13090;53.422;7.670;2023-06-22T07:09:45;28.50;61.10
25108;DHT22;13090;53.422;7.670;2023-06-22T07:15:08;28.60;59.20
25108;DHT22;13090;53.422;7.670;2023-06-22T07:20:30;28.70;61.30
25108;DHT22;13090;53.422;7.670;2023-06-22T07:25:53;29.00;60.60
25108;DHT22;13090;53.422;7.670;2023-06-22T07:31:13;29.30;58.20
25108;DHT22;13090;53.422;7.670;2023-06-22T07:36:34;29.40;57.50
25108;DHT22;13090;53.422;7.670;2023-06-22T07:41:57;29.40;55.40
25108;DHT22;13090;53.422;7.670;2023-06-22T07:47:18;29.40;56.10
25108;DHT22;13090;53.422;7.670;2023-06-22T07:52:39;29.60;57.00
25108;DHT22;13090;53.422;7.670;2023-06-22T07:58:01;29.90;57.30
25108;DHT22;13090;53.422;7.670;2023-06-22T08:03:22;30.60;56.30
25108;DHT22;13090;53.422;7.670;2023-06-22T08:08:43;31.20;56.00
25108;DHT22;13090;53.422;7.670;2023-06-22T08:14:05;31.60;55.10
25108;DHT22;13090;53.422;7.670;2023-06-22T08:19:27;32.10;51.40
25108;DHT22;13090;53.422;7.670;2023-06-22T08:24:47;31.80;51.90
25108;DHT22;13090;53.422;7.670;2023-06-22T08:30:10;31.80;51.10
25108;DHT22;13090;53.422;7.670;2023-06-22T08:35:31;31.90;51.60
25108;DHT22;13090;53.422;7.670;2023-06-22T08:40:53;32.20;52.00
25108;DHT22;13090;53.422;7.670;2023-06-22T08:46:15;32.60;51.10
25108;DHT22;13090;53.422;7.670;2023-06-22T08:51:36;32.90;51.60
25108;DHT22;13090;53.422;7.670;2023-06-22T08:56:57;33.00;48.10
25108;DHT22;13090;53.422;7.670;2023-06-22T09:02:19;32.80;49.50
25108;DHT22;13090;53.422;7.670;2023-06-22T09:07:41;33.00;48.80
25108;DHT22;13090;53.422;7.670;2023-06-22T09:13:02;33.30;49.10
25108;DHT22;13090;53.422;7.670;2023-06-22T09:18:24;33.80;50.40
25108;DHT22;13090;53.422;7.670;2023-06-22T09:23:45;34.70;49.60
25108;DHT22;13090;53.422;7.670;2023-06-22T09:29:06;35.60;49.10
25108;DHT22;13090;53.422;7.670;2023-06-22T09:34:28;36.10;45.80
25108;DHT22;13090;53.422;7.670;2023-06-22T09:39:51;36.50;45.60
25108;DHT22;13090;53.422;7.670;2023-06-22T09:45:12;37.10;45.30
25108;DHT22;13090;53.422;7.670;2023-06-22T09:50:34;37.50;43.90
25108;DHT22;13090;53.422;7.670;2023-06-22T09:55:55;37.70;41.60
25108;DHT22;13090;53.422;7.670;2023-06-22T10:01:16;37.40;41.10
25108;DHT22;13090;53.422;7.670;2023-06-22T10:06:38;37.00;41.70
25108;DHT22;13090;53.422;7.670;2023-06-22T10:12:00;37.20;42.50
25108;DHT22;13090;53.422;7.670;2023-06-22T10:17:20;37.30;40.60
25108;DHT22;13090;53.422;7.670;2023-06-22T10:22:44;37.40;41.70
25108;DHT22;13090;53.422;7.670;2023-06-22T10:28:05;37.80;41.80
25108;DHT22;13090;53.422;7.670;2023-06-22T10:33:26;38.40;40.50
25108;DHT22;13090;53.422;7.670;2023-06-22T10:38:48;38.70;40.30
25108;DHT22;13090;53.422;7.670;2023-06-22T10:44:09;38.70;38.20
25108;DHT22;13090;53.422;7.670;2023-06-22T10:49:30;38.30;37.80
25108;DHT22;13090;53.422;7.670;2023-06-22T10:54:53;38.10;36.40
25108;DHT22;13090;53.422;7.670;2023-06-22T11:00:14;37.40;37.10
25108;DHT22;13090;53.422;7.670;2023-06-22T11:05:36;36.70;36.80
25108;DHT22;13090;53.422;7.670;2023-06-22T11:10:58;36.10;39.00
25108;DHT22;13090;53.422;7.670;2023-06-22T11:16:19;35.80;39.10
25108;DHT22;13090;53.422;7.670;2023-06-22T11:21:40;35.40;38.00
25108;DHT22;13090;53.422;7.670;2023-06-22T11:27:02;34.50;38.40
25108;DHT22;13090;53.422;7.670;2023-06-22T11:32:23;33.90;40.50
25108;DHT22;13090;53.422;7.670;2023-06-22T11:37:45;33.70;41.00
25108;DHT22;13090;53.422;7.670;2023-06-22T11:43:07;34.00;41.70
25108;DHT22;13090;53.422;7.670;2023-06-22T11:48:28;34.10;41.40
25108;DHT22;13090;53.422;7.670;2023-06-22T11:53:49;34.10;41.50
25108;DHT22;13090;53.422;7.670;2023-06-22T11:59:12;34.50;41.80
25108;DHT22;13090;53.422;7.670;2023-06-22T12:04:33;34.90;39.70
25108;DHT22;13090;53.422;7.670;2023-06-22T12:09:54;34.70;40.20
25108;DHT22;13090;53.422;7.670;2023-06-22T12:15:16;34.20;40.10
25108;DHT22;13090;53.422;7.670;2023-06-22T12:20:37;33.70;41.30
25108;DHT22;13090;53.422;7.670;2023-06-22T12:25:58;33.40;41.00
25108;DHT22;13090;53.422;7.670;2023-06-22T12:31:20;32.90;42.10
25108;DHT22;13090;53.422;7.670;2023-06-22T12:36:41;32.80;42.60
25108;DHT22;13090;53.422;7.670;2023-06-22T12:42:03;32.80;43.30
25108;DHT22;13090;53.422;7.670;2023-06-22T12:47:25;33.10;42.90
25108;DHT22;13090;53.422;7.670;2023-06-22T12:52:47;33.30;42.80
25108;DHT22;13090;53.422;7.670;2023-06-22T12:58:08;33.60;42.80
25108;DHT22;13090;53.422;7.670;2023-06-22T13:03:30;33.90;42.50
25108;DHT22;13090;53.422;7.670;2023-06-22T13:08:51;34.20;42.40
25108;DHT22;13090;53.422;7.670;2023-06-22T13:14:15;34.50;42.20
25108;DHT22;13090;53.422;7.670;2023-06-22T13:19:37;34.70;41.90
25108;DHT22;13090;53.422;7.670;2023-06-22T13:24:59;34.90;41.30
25108;DHT22;13090;53.422;7.670;2023-06-22T13:30:20;35.00;41.30
25108;DHT22;13090;53.422;7.670;2023-06-22T13:35:42;35.10;41.30
25108;DHT22;13090;53.422;7.670;2023-06-22T13:41:03;35.30;40.70
25108;DHT22;13090;53.422;7.670;2023-06-22T13:46:24;35.50;40.50
25108;DHT22;13090;53.422;7.670;2023-06-22T13:51:46;35.40;40.10
25108;DHT22;13090;53.422;7.670;2023-06-22T13:57:08;35.40;40.00
25108;DHT22;13090;53.422;7.670;2023-06-22T14:02:29;35.40;39.90
25108;DHT22;13090;53.422;7.670;2023-06-22T14:07:51;35.30;39.70
25108;DHT22;13090;53.422;7.670;2023-06-22T14:13:12;35.00;39.50
25108;DHT22;13090;53.422;7.670;2023-06-22T14:18:33;34.80;39.70
25108;DHT22;13090;53.422;7.670;2023-06-22T14:23:56;34.60;39.80
25108;DHT22;13090;53.422;7.670;2023-06-22T14:29:17;34.40;39.60
25108;DHT22;13090;53.422;7.670;2023-06-22T14:34:38;34.30;39.60
25108;DHT22;13090;53.422;7.670;2023-06-22T14:40:00;34.20;39.30
25108;DHT22;13090;53.422;7.670;2023-06-22T14:45:22;34.00;39.10
25108;DHT22;13090;53.422;7.670;2023-06-22T14:50:42;33.70;39.00
25108;DHT22;13090;53.422;7.670;2023-06-22T14:56:05;33.50;39.00
25108;DHT22;13090;53.422;7.670;2023-06-22T15:01:26;33.10;38.80
25108;DHT22;13090;53.422;7.670;2023-06-22T15:06:47;32.80;38.90
25108;DHT22;13090;53.422;7.670;2023-06-22T15:12:09;32.60;39.20
25108;DHT22;13090;53.422;7.670;2023-06-22T15:17:30;32.30;39.20
25108;DHT22;13090;53.422;7.670;2023-06-22T15:22:52;32.10;39.60
25108;DHT22;13090;53.422;7.670;2023-06-22T15:28:14;31.90;39.50
25108;DHT22;13090;53.422;7.670;2023-06-22T15:33:35;31.80;39.60
25108;DHT22;13090;53.422;7.670;2023-06-22T15:38:56;31.60;40.00
25108;DHT22;13090;53.422;7.670;2023-06-22T15:44:18;31.30;40.20
25108;DHT22;13090;53.422;7.670;2023-06-22T15:49:39;31.20;40.20
25108;DHT22;13090;53.422;7.670;2023-06-22T15:55:01;30.90;40.30
25108;DHT22;13090;53.422;7.670;2023-06-22T16:00:23;30.70;40.30
25108;DHT22;13090;53.422;7.670;2023-06-22T16:05:44;30.40;40.30
25108;DHT22;13090;53.422;7.670;2023-06-22T16:11:05;30.20;40.60
25108;DHT22;13090;53.422;7.670;2023-06-22T16:16:27;29.90;41.00
25108;DHT22;13090;53.422;7.670;2023-06-22T16:21:48;29.60;41.40
25108;DHT22;13090;53.422;7.670;2023-06-22T16:27:09;29.20;41.60
25108;DHT22;13090;53.422;7.670;2023-06-22T16:32:31;28.90;41.80
25108;DHT22;13090;53.422;7.670;2023-06-22T16:37:53;28.70;42.50
25108;DHT22;13090;53.422;7.670;2023-06-22T16:43:15;28.40;43.20
25108;DHT22;13090;53.422;7.670;2023-06-22T16:48:37;28.20;43.70
25108;DHT22;13090;53.422;7.670;2023-06-22T16:53:59;28.00;44.60
25108;DHT22;13090;53.422;7.670;2023-06-22T16:59:20;27.70;44.90
25108;DHT22;13090;53.422;7.670;2023-06-22T17:04:45;27.40;45.40
25108;DHT22;13090;53.422;7.670;2023-06-22T17:10:08;27.10;46.20
25108;DHT22;13090;53.422;7.670;2023-06-22T17:15:31;26.90;46.50
25108;DHT22;13090;53.422;7.670;2023-06-22T17:20:53;26.80;47.00
25108;DHT22;13090;53.422;7.670;2023-06-22T17:26:15;26.60;47.20
25108;DHT22;13090;53.422;7.670;2023-06-22T17:31:37;26.50;47.30
25108;DHT22;13090;53.422;7.670;2023-06-22T17:36:59;26.40;47.60
25108;DHT22;13090;53.422;7.670;2023-06-22T17:42:22;26.30;47.90
25108;DHT22;13090;53.422;7.670;2023-06-22T17:47:45;26.20;48.00
25108;DHT22;13090;53.422;7.670;2023-06-22T17:53:11;26.10;47.80
25108;DHT22;13090;53.422;7.670;2023-06-22T17:58:32;26.00;48.50
25108;DHT22;13090;53.422;7.670;2023-06-22T18:03:53;25.90;48.30
25108;DHT22;13090;53.422;7.670;2023-06-22T18:09:16;25.80;48.50
25108;DHT22;13090;53.422;7.670;2023-06-22T18:14:37;25.80;49.10
25108;DHT22;13090;53.422;7.670;2023-06-22T18:19:59;25.70;49.10
25108;DHT22;13090;53.422;7.670;2023-06-22T18:25:24;25.60;49.40
25108;DHT22;13090;53.422;7.670;2023-06-22T18:30:46;25.60;50.10
25108;DHT22;13090;53.422;7.670;2023-06-22T18:36:08;25.50;50.20
25108;DHT22;13090;53.422;7.670;2023-06-22T18:41:35;25.40;50.40
25108;DHT22;13090;53.422;7.670;2023-06-22T18:46:58;25.40;51.00
25108;DHT22;13090;53.422;7.670;2023-06-22T18:52:25;25.30;50.80
25108;DHT22;13090;53.422;7.670;2023-06-22T18:58:14;25.20;51.70
25108;DHT22;13090;53.422;7.670;2023-06-22T19:03:35;25.10;52.60
25108;DHT22;13090;53.422;7.670;2023-06-22T19:09:15;25.00;51.70
25108;DHT22;13090;53.422;7.670;2023-06-22T19:14:39;24.90;53.10
25108;DHT22;13090;53.422;7.670;2023-06-22T19:20:02;24.70;52.70
25108;DHT22;13090;53.422;7.670;2023-06-22T19:25:26;24.60;52.80
25108;DHT22;13090;53.422;7.670;2023-06-22T19:30:50;24.50;53.40
25108;DHT22;13090;53.422;7.670;2023-06-22T19:36:12;24.50;53.80
25108;DHT22;13090;53.422;7.670;2023-06-22T19:41:33;24.40;53.80
25108;DHT22;13090;53.422;7.670;2023-06-22T19:46:55;24.30;54.40
25108;DHT22;13090;53.422;7.670;2023-06-22T19:52:16;24.20;54.80
25108;DHT22;13090;53.422;7.670;2023-06-22T19:57:37;24.20;54.80
25108;DHT22;13090;53.422;7.670;2023-06-22T20:03:00;24.20;55.00
25108;DHT22;13090;53.422;7.670;2023-06-22T20:08:21;24.10;55.40
25108;DHT22;13090;53.422;7.670;2023-06-22T20:13:46;23.90;55.40
25108;DHT22;13090;53.422;7.670;2023-06-22T20:19:10;23.90;56.10
25108;DHT22;13090;53.422;7.670;2023-06-22T20:24:31;23.80;56.20
25108;DHT22;13090;53.422;7.670;2023-06-22T20:29:54;23.70;56.80
25108;DHT22;13090;53.422;7.670;2023-06-22T20:35:18;23.60;56.90
25108;DHT22;13090;53.422;7.670;2023-06-22T20:40:39;23.50;57.10
25108;DHT22;13090;53.422;7.670;2023-06-22T20:46:00;23.50;57.10
25108;DHT22;13090;53.422;7.670;2023-06-22T20:51:22;23.40;57.50
25108;DHT22;13090;53.422;7.670;2023-06-22T20:56:44;23.30;58.10
25108;DHT22;13090;53.422;7.670;2023-06-22T21:02:05;23.20;58.20
25108;DHT22;13090;53.422;7.670;2023-06-22T21:07:27;23.20;58.50
25108;DHT22;13090;53.422;7.670;2023-06-22T21:12:48;23.20;58.90
25108;DHT22;13090;53.422;7.670;2023-06-22T21:18:09;23.20;59.00
25108;DHT22;13090;53.422;7.670;2023-06-22T21:23:31;23.10;59.20
25108;DHT22;13090;53.422;7.670;2023-06-22T21:28:52;23.10;59.60
25108;DHT22;13090;53.422;7.670;2023-06-22T21:34:13;23.00;59.60
25108;DHT22;13090;53.422;7.670;2023-06-22T21:39:35;23.00;59.90
25108;DHT22;13090;53.422;7.670;2023-06-22T21:44:58;22.90;60.50
25108;DHT22;13090;53.422;7.670;2023-06-22T21:50:19;22.90;60.50
25108;DHT22;13090;53.422;7.670;2023-06-22T21:55:42;22.80;61.10
25108;DHT22;13090;53.422;7.670;2023-06-22T22:01:03;22.80;61.80
25108;DHT22;13090;53.422;7.670;2023-06-22T22:06:23;22.70;62.80
25108;DHT22;13090;53.422;7.670;2023-06-22T22:11:45;22.70;62.50
25108;DHT22;13090;53.422;7.670;2023-06-22T22:17:06;22.60;63.30
25108;DHT22;13090;53.422;7.670;2023-06-22T22:22:27;22.60;63.60
25108;DHT22;13090;53.422;7.670;2023-06-22T22:27:50;22.60;63.90
25108;DHT22;13090;53.422;7.670;2023-06-22T22:33:11;22.70;64.70
25108;DHT22;13090;53.422;7.670;2023-06-22T22:38:31;22.60;64.60
25108;DHT22;13090;53.422;7.670;2023-06-22T22:43:54;22.70;65.00
25108;DHT22;13090;53.422;7.670;2023-06-22T22:49:15;22.70;65.40
25108;DHT22;13090;53.422;7.670;2023-06-22T22:54:36;22.60;65.30
25108;DHT22;13090;53.422;7.670;2023-06-22T22:59:58;22.60;65.50
25108;DHT22;13090;53.422;7.670;2023-06-22T23:05:19;22.50;66.00
25108;DHT22;13090;53.422;7.670;2023-06-22T23:10:40;22.40;66.00
25108;DHT22;13090;53.422;7.670;2023-06-22T23:16:02;22.30;66.40
25108;DHT22;13090;53.422;7.670;2023-06-22T23:21:25;22.30;67.10
25108;DHT22;13090;53.422;7.670;2023-06-22T23:26:46;22.30;67.00
25108;DHT22;13090;53.422;7.670;2023-06-22T23:32:08;22.30;67.30
25108;DHT22;13090;53.422;7.670;2023-06-22T23:37:29;22.30;67.60
25108;DHT22;13090;53.422;7.670;2023-06-22T23:42:50;22.30;67.30
25108;DHT22;13090;53.422;7.670;2023-06-22T23:48:13;22.30;67.40
25108;DHT22;13090;53.422;7.670;2023-06-22T23:53:34;22.30;68.10
25108;DHT22;13090;53.422;7.670;2023-06-22T23:58:55;22.30;67.70
